Time;durP1;ratioP1;P1;durP2;ratioP2;P2;SDS_P1;SDS_P2;PMS_P1;PMS_P2;Temp;Humidity;BMP_temperature;BMP_pressure;BME280_temperature;BME280_humidity;BME280_pressure;Samples;Min_cycle;Max_cycle;Signal;HPM_P1;HPM_P2
2021/01/29 00:01:34;;;;;;;67.05;33.70;;;;;;;2.16;100.00;99597.19;4987720;28;20058;-85
2021/01/29 00:03:59;;;;;;;67.95;32.80;;;;;;;2.14;100.00;99588.53;5010502;28;20149;-83
2021/01/29 00:06:24;;;;;;;72.28;34.53;;;;;;;2.19;100.00;99583.69;4997755;28;20045;-86
2021/01/29 00:08:50;;;;;;;67.72;34.10;;;;;;;2.19;100.00;99570.44;4995615;28;20038;-83
2021/01/29 00:11:15;;;;;;;62.80;31.83;;;;;;;2.16;100.00;99568.91;4997428;28;20038;-83
2021/01/29 00:13:40;;;;;;;62.90;29.60;;;;;;;2.17;100.00;99559.16;5012637;28;20049;-83
2021/01/29 00:16:06;;;;;;;63.13;29.75;;;;;;;2.18;100.00;99560.81;5000195;28;20053;-86
2021/01/29 00:18:31;;;;;;;66.90;31.10;;;;;;;2.18;100.00;99564.28;5009287;28;20056;-84
2021/01/29 00:20:57;;;;;;;61.95;32.65;;;;;;;2.18;100.00;99566.94;5005789;28;20042;-83
2021/01/29 00:23:22;;;;;;;61.72;30.50;;;;;;;2.17;100.00;99564.44;5007557;28;20121;-84
2021/01/29 00:25:51;;;;;;;63.05;32.78;;;;;;;2.18;100.00;99551.06;5008528;28;20038;-82
2021/01/29 00:28:18;;;;;;;59.95;29.88;;;;;;;2.21;100.00;99544.66;5026955;28;20045;-85
2021/01/29 00:30:44;;;;;;;67.18;33.30;;;;;;;2.23;100.00;99540.06;5009856;28;20053;-82
2021/01/29 00:33:12;;;;;;;57.20;28.85;;;;;;;2.19;100.00;99531.56;5002310;28;20081;-84
2021/01/29 00:35:38;;;;;;;66.85;33.13;;;;;;;2.22;100.00;99522.50;5008052;28;20463;-83
2021/01/29 00:38:05;;;;;;;60.53;30.27;;;;;;;2.20;100.00;99527.94;5005693;28;20037;-85
2021/01/29 00:40:31;;;;;;;66.85;32.67;;;;;;;2.23;100.00;99521.53;5008119;28;20034;-82
2021/01/29 00:42:56;;;;;;;59.78;30.13;;;;;;;2.21;100.00;99510.22;4966184;28;20034;-84
2021/01/29 00:45:24;;;;;;;57.83;29.73;;;;;;;2.22;100.00;99506.63;5008327;28;20096;-81
2021/01/29 00:47:50;;;;;;;64.35;31.77;;;;;;;2.21;100.00;99497.81;5007082;28;20101;-83
2021/01/29 00:50:16;;;;;;;60.40;29.13;;;;;;;2.24;100.00;99488.78;5003328;28;20513;-85
2021/01/29 00:52:42;;;;;;;59.08;30.52;;;;;;;2.27;100.00;99485.84;5006029;28;20065;-84
2021/01/29 00:55:09;;;;;;;62.75;29.50;;;;;;;2.24;100.00;99467.59;5009874;28;20041;-82
2021/01/29 00:57:34;;;;;;;62.30;30.17;;;;;;;2.24;100.00;99462.31;5005626;28;20100;-82
2021/01/29 01:00:00;;;;;;;56.38;28.88;;;;;;;2.24;100.00;99449.06;5007485;28;20495;-81
2021/01/29 01:02:25;;;;;;;60.70;29.88;;;;;;;2.22;100.00;99451.03;5007720;28;20045;-85
2021/01/29 01:04:51;;;;;;;55.28;28.90;;;;;;;2.24;100.00;99443.78;5006497;28;20046;-81
2021/01/29 01:07:16;;;;;;;52.40;27.10;;;;;;;2.24;100.00;99443.78;4989116;28;20136;-86
2021/01/29 01:09:43;;;;;;;56.05;28.77;;;;;;;2.27;100.00;99440.84;5011493;28;20033;-80
2021/01/29 01:12:09;;;;;;;58.42;25.67;;;;;;;2.26;100.00;99425.94;5022934;28;20200;-83
2021/01/29 01:14:34;;;;;;;62.10;31.25;;;;;;;2.29;100.00;99417.72;5010440;28;20508;-85
2021/01/29 01:17:00;;;;;;;65.57;33.10;;;;;;;2.30;100.00;99408.78;5005077;28;20039;-86
2021/01/29 01:19:25;;;;;;;59.58;28.40;;;;;;;2.29;100.00;99399.19;5004639;28;20046;-84
2021/01/29 01:21:50;;;;;;;65.78;30.70;;;;;;;2.31;100.00;99380.53;5001179;28;20042;-85
2021/01/29 01:24:16;;;;;;;67.72;31.50;;;;;;;2.33;100.00;99375.88;4983012;28;20058;-85
2021/01/29 01:26:42;;;;;;;70.68;31.23;;;;;;;2.34;100.00;99367.00;4991074;28;20097;-80
2021/01/29 01:29:07;;;;;;;76.45;36.70;;;;;;;2.35;100.00;99360.69;4998254;28;20054;-84
2021/01/29 01:31:33;;;;;;;73.00;34.75;;;;;;;2.38;100.00;99365.69;5013312;28;20408;-85
2021/01/29 01:33:58;;;;;;;80.15;35.50;;;;;;;2.36;100.00;99359.72;5009660;28;20034;-85
2021/01/29 01:36:24;;;;;;;82.50;37.88;;;;;;;2.39;100.00;99351.50;5005475;28;20049;-83
2021/01/29 01:38:50;;;;;;;84.30;39.70;;;;;;;2.38;100.00;99350.66;5002588;28;20129;-82
2021/01/29 01:41:15;;;;;;;84.82;36.35;;;;;;;2.37;100.00;99340.22;5013795;28;20516;-86
2021/01/29 01:43:41;;;;;;;101.63;41.10;;;;;;;2.42;100.00;99341.44;5015201;28;20129;-83
2021/01/29 01:46:12;;;;;;;96.03;38.78;;;;;;;2.40;100.00;99335.44;5011451;28;20082;-80
2021/01/29 01:48:46;;;;;;;108.57;43.90;;;;;;;2.44;100.00;99328.88;5009225;28;20044;-83
2021/01/29 01:51:19;;;;;;;98.72;36.78;;;;;;;2.42;100.00;99324.72;4992645;28;20054;-85
2021/01/29 01:53:48;;;;;;;131.23;46.60;;;;;;;2.46;100.00;99316.31;4993656;28;20074;-84
2021/01/29 01:56:22;;;;;;;112.45;42.22;;;;;;;2.45;100.00;99309.38;4985460;28;20050;-85
2021/01/29 01:58:53;;;;;;;132.50;46.30;;;;;;;2.46;100.00;99305.72;4984602;28;20039;-84
2021/01/29 02:01:21;;;;;;;112.35;42.30;;;;;;;2.46;100.00;99300.44;4988526;28;20047;-85
2021/01/29 02:03:46;;;;;;;138.02;46.60;;;;;;;2.48;100.00;99293.19;5005730;28;20070;-81
2021/01/29 02:06:12;;;;;;;132.82;43.63;;;;;;;2.48;100.00;99279.94;4991466;28;20077;-85
2021/01/29 02:08:41;;;;;;;135.10;47.17;;;;;;;2.50;100.00;99269.19;4973887;28;20096;-85
2021/01/29 02:11:07;;;;;;;152.48;50.90;;;;;;;2.55;100.00;99266.09;4991728;28;20069;-84
2021/01/29 02:13:32;;;;;;;179.30;54.00;;;;;;;2.55;100.00;99260.81;4992885;28;20557;-82
2021/01/29 02:16:07;;;;;;;152.80;50.22;;;;;;;2.54;100.00;99252.03;4983203;28;20062;-84
2021/01/29 02:19:10;;;;;;;146.18;48.25;;;;;;;2.55;100.00;99245.75;4979293;28;20421;-85
2021/01/29 02:22:05;;;;;;;164.98;53.95;;;;;;;2.55;100.00;99231.69;4994928;28;20551;-83
2021/01/29 02:24:34;;;;;;;163.38;48.90;;;;;;;2.56;100.00;99230.69;4989078;28;20093;-84
2021/01/29 02:27:24;;;;;;;187.50;59.00;;;;;;;2.57;100.00;99208.53;5003480;28;20457;-84
2021/01/29 02:30:27;;;;;;;200.10;55.72;;;;;;;2.59;100.00;99201.25;5011782;28;20044;-84
2021/01/29 02:33:13;;;;;;;190.27;57.90;;;;;;;2.58;100.00;99191.66;5000225;28;20408;-85
2021/01/29 02:36:00;;;;;;;183.93;57.40;;;;;;;2.60;100.00;99179.09;4981724;28;20788;-85
2021/01/29 02:38:44;;;;;;;200.35;60.47;;;;;;;2.61;100.00;99175.44;5013229;28;20072;-83
2021/01/29 02:41:18;;;;;;;191.90;56.05;;;;;;;2.64;100.00;99169.84;4994753;28;20448;-82
2021/01/29 02:44:02;;;;;;;212.27;57.35;;;;;;;2.65;100.00;99151.16;5003907;28;20038;-86
2021/01/29 02:46:54;;;;;;;164.40;49.17;;;;;;;2.66;100.00;99147.53;4996297;28;20058;-83
2021/01/29 02:49:38;;;;;;;218.30;60.30;;;;;;;2.69;100.00;99141.09;4997271;28;20501;-84
2021/01/29 02:52:13;;;;;;;202.10;57.35;;;;;;;2.70;100.00;99122.41;4985488;28;20081;-82
2021/01/29 02:54:47;;;;;;;170.57;53.40;;;;;;;2.73;100.00;99118.59;4986967;28;20400;-83
2021/01/29 02:57:31;;;;;;;177.95;54.13;;;;;;;2.75;100.00;99100.72;4986859;28;20068;-84
2021/01/29 03:00:12;;;;;;;195.65;54.72;;;;;;;2.77;100.00;99105.91;5026872;28;20062;-85
2021/01/29 03:02:49;;;;;;;157.32;48.40;;;;;;;2.78;100.00;99091.66;4996331;28;20049;-84
2021/01/29 03:05:22;;;;;;;188.95;55.35;;;;;;;2.80;100.00;99084.38;4986989;28;20050;-85
2021/01/29 03:08:03;;;;;;;186.48;54.33;;;;;;;2.82;100.00;99072.66;4990197;28;20046;-85
2021/01/29 03:10:48;;;;;;;167.27;49.20;;;;;;;2.84;100.00;99064.53;5006330;28;20396;-85
2021/01/29 03:13:21;;;;;;;169.45;53.63;;;;;;;2.86;100.00;99058.09;4986665;28;20139;-83
2021/01/29 03:16:00;;;;;;;166.20;51.15;;;;;;;2.86;100.00;99044.84;4992766;28;20124;-86
2021/01/29 03:18:38;;;;;;;146.18;47.50;;;;;;;2.88;100.00;99045.53;5007938;28;20037;-86
2021/01/29 03:21:13;;;;;;;149.43;49.83;;;;;;;2.90;100.00;99043.53;5007573;28;20042;-85
2021/01/29 03:23:43;;;;;;;172.10;51.67;;;;;;;2.91;100.00;99031.97;4997400;28;20550;-83
2021/01/29 03:26:18;;;;;;;156.57;48.33;;;;;;;2.93;100.00;99029.13;4990084;28;20076;-82
2021/01/29 03:28:50;;;;;;;166.60;49.92;;;;;;;2.96;100.00;99031.47;5002460;28;20070;-84
2021/01/29 03:31:19;;;;;;;147.13;47.72;;;;;;;2.98;100.00;99021.53;4985404;28;21032;-85
2021/01/29 03:33:47;;;;;;;168.63;53.80;;;;;;;3.00;100.00;99022.22;5001823;28;20066;-82
2021/01/29 03:36:18;;;;;;;164.13;49.97;;;;;;;3.01;100.00;99002.69;4987981;28;20053;-84
2021/01/29 03:38:52;;;;;;;172.52;53.17;;;;;;;3.04;100.00;99006.84;4990134;28;20042;-84
2021/01/29 03:41:24;;;;;;;177.70;50.80;;;;;;;3.04;100.00;98997.06;4991817;28;20050;-84
2021/01/29 03:44:10;;;;;;;197.32;55.60;;;;;;;3.08;100.00;98989.59;5011201;28;20038;-86
2021/01/29 03:46:49;;;;;;;173.85;52.92;;;;;;;3.10;100.00;98977.03;5014117;28;20046;-85
2021/01/29 03:49:36;;;;;;;187.80;55.97;;;;;;;3.12;100.00;98973.25;5003826;28;20165;-85
2021/01/29 03:52:29;;;;;;;197.20;56.90;;;;;;;3.12;100.00;98962.63;5009275;28;20057;-83
2021/01/29 03:55:00;;;;;;;189.48;54.58;;;;;;;3.15;100.00;98951.72;5001173;28;20085;-80
2021/01/29 03:57:33;;;;;;;213.88;57.72;;;;;;;3.19;100.00;98946.91;5002673;28;20497;-85
2021/01/29 04:00:12;;;;;;;220.80;59.60;;;;;;;3.21;100.00;98942.28;5001525;28;20068;-85
2021/01/29 04:03:05;;;;;;;233.98;61.40;;;;;;;3.24;100.00;98928.69;5004182;28;20105;-82
2021/01/29 04:05:45;;;;;;;215.15;59.03;;;;;;;3.25;100.00;98924.22;4991980;28;20047;-85
2021/01/29 04:08:23;;;;;;;225.15;55.60;;;;;;;3.28;100.00;98914.16;4982521;28;20182;-81
2021/01/29 04:10:53;;;;;;;194.02;54.22;;;;;;;3.29;100.00;98907.84;5010284;28;20069;-82
2021/01/29 04:13:31;;;;;;;197.68;60.25;;;;;;;3.34;100.00;98908.19;5007958;28;20050;-85
2021/01/29 04:15:56;;;;;;;188.93;54.67;;;;;;;3.36;100.00;98894.75;5006786;28;20038;-84
2021/01/29 04:18:42;;;;;;;183.35;54.97;;;;;;;3.41;100.00;98881.00;5004946;28;20131;-82
2021/01/29 04:21:20;;;;;;;227.93;61.58;;;;;;;3.44;100.00;98872.72;5006100;28;20053;-86
2021/01/29 04:23:55;;;;;;;186.73;53.35;;;;;;;3.44;100.00;98870.06;5008187;28;20106;-85
2021/01/29 04:26:28;;;;;;;158.73;50.25;;;;;;;3.46;100.00;98866.25;5008955;28;20042;-84
2021/01/29 04:29:16;;;;;;;175.65;52.40;;;;;;;3.51;100.00;98860.44;5001183;28;20057;-83
2021/01/29 04:31:44;;;;;;;182.70;52.80;;;;;;;3.50;100.00;98851.66;4982930;28;20043;-80
2021/01/29 04:34:29;;;;;;;174.98;48.45;;;;;;;3.52;100.00;98851.50;5019869;28;20101;-81
2021/01/29 04:36:59;;;;;;;188.32;51.78;;;;;;;3.54;100.00;98844.19;5019351;28;20058;-80
2021/01/29 04:39:38;;;;;;;187.10;53.90;;;;;;;3.56;100.00;98837.72;4991533;28;20039;-86
2021/01/29 04:42:09;;;;;;;;;;;;;;;3.59;100.00;98825.97;4991074;28;20060;-85
2021/01/29 04:44:46;;;;;;;171.48;50.50;;;;;;;3.53;100.00;98824.81;5008304;28;19918;-83
2021/01/29 04:47:30;;;;;;;192.23;52.47;;;;;;;3.57;100.00;98807.59;4989638;28;20046;-85
2021/01/29 04:50:24;;;;;;;179.13;57.03;;;;;;;3.62;100.00;98804.41;4976590;28;20178;-83
2021/01/29 04:53:12;;;;;;;174.80;53.40;;;;;;;3.66;100.00;98800.44;4967088;28;20043;-81
2021/01/29 04:55:37;;;;;;;181.35;56.95;;;;;;;3.73;100.00;98792.63;4972581;28;20411;-85
2021/01/29 04:58:08;;;;;;;203.02;58.45;;;;;;;3.75;100.00;98780.84;5001835;28;20120;-82
2021/01/29 05:00:52;;;;;;;183.88;55.70;;;;;;;3.78;100.00;98777.03;5022265;28;20037;-84
2021/01/29 05:03:47;;;;;;;171.43;52.60;;;;;;;3.80;100.00;98772.41;4995552;28;20058;-85
2021/01/29 05:06:25;;;;;;;173.45;53.92;;;;;;;3.85;100.00;98762.06;5002789;28;20042;-85
2021/01/29 05:09:16;;;;;;;164.70;53.08;;;;;;;3.87;100.00;98754.78;4996627;28;20125;-85
2021/01/29 05:12:17;;;;;;;165.48;53.83;;;;;;;3.93;100.00;98755.94;5007567;28;20098;-84
2021/01/29 05:15:22;;;;;;;151.50;44.72;;;;;;;3.96;100.00;98747.63;4987940;28;20033;-84
2021/01/29 05:18:21;;;;;;;141.25;49.05;;;;;;;3.98;100.00;98741.13;4995120;28;20046;-83
2021/01/29 05:21:14;;;;;;;151.90;50.10;;;;;;;4.02;100.00;98728.34;4952729;28;20043;-85
2021/01/29 05:24:17;;;;;;;139.63;48.55;;;;;;;4.03;100.00;98725.53;5001707;28;20034;-85
2021/01/29 05:26:55;;;;;;;122.70;45.33;;;;;;;4.11;100.00;98721.19;4976833;28;20070;-81
2021/01/29 05:29:50;;;;;;;127.68;45.47;;;;;;;4.14;100.00;98720.81;4980930;28;20436;-85
2021/01/29 05:32:31;;;;;;;127.53;44.35;;;;;;;4.23;100.00;98709.16;4977685;28;20054;-83
2021/01/29 05:35:28;;;;;;;143.20;51.70;;;;;;;4.26;100.00;98712.31;4979851;28;20050;-82
2021/01/29 05:38:06;;;;;;;137.60;55.28;;;;;;;4.35;100.00;98709.63;5000781;28;20043;-80
2021/01/29 05:41:04;;;;;;;134.00;48.15;;;;;;;4.40;100.00;98697.47;4981364;28;20493;-85
2021/01/29 05:43:50;;;;;;;130.98;49.55;;;;;;;4.49;100.00;98698.25;5000275;28;20100;-85
2021/01/29 05:46:22;;;;;;;142.18;53.28;;;;;;;4.53;100.00;98696.88;4989678;28;20077;-83
2021/01/29 05:48:50;;;;;;;128.95;49.80;;;;;;;4.58;100.00;98694.53;4986538;28;20510;-82
2021/01/29 05:51:27;;;;;;;125.90;48.45;;;;;;;4.64;100.00;98690.34;4975723;28;20057;-83
2021/01/29 05:54:27;;;;;;;116.43;50.40;;;;;;;4.66;100.00;98686.50;4978879;28;20039;-85
2021/01/29 05:57:15;;;;;;;118.15;48.50;;;;;;;4.69;100.00;98680.81;4888273;28;20055;-84
2021/01/29 06:00:07;;;;;;;113.65;49.00;;;;;;;4.69;100.00;98678.16;4951127;28;20116;-82
2021/01/29 06:03:00;;;;;;;122.28;51.63;;;;;;;4.72;100.00;98685.78;4937023;28;20046;-83
2021/01/29 06:05:48;;;;;;;119.28;44.28;;;;;;;4.76;100.00;98680.94;4987295;28;20034;-85
2021/01/29 06:08:31;;;;;;;112.22;39.40;;;;;;;4.80;100.00;98684.88;4982641;28;20062;-85
2021/01/29 06:11:05;;;;;;;98.18;37.97;;;;;;;4.83;100.00;98681.03;4983387;28;20051;-85
2021/01/29 06:13:34;;;;;;;103.32;41.08;;;;;;;4.85;100.00;98679.03;4996150;28;20046;-85
2021/01/29 06:16:37;;;;;;;104.18;45.88;;;;;;;4.86;100.00;98673.56;4996834;28;20405;-84
2021/01/29 06:19:28;;;;;;;94.47;43.15;;;;;;;4.89;100.00;98669.69;4994479;28;20042;-82
2021/01/29 06:22:06;;;;;;;104.38;46.38;;;;;;;4.92;100.00;98658.69;5024549;28;20050;-86
2021/01/29 06:24:46;;;;;;;110.18;46.28;;;;;;;4.94;100.00;98669.97;4979490;28;20046;-81
2021/01/29 06:27:26;;;;;;;103.22;46.38;;;;;;;5.00;100.00;98665.78;4979149;28;20748;-80
2021/01/29 06:30:35;;;;;;;111.88;48.28;;;;;;;5.00;100.00;98666.59;4980835;28;20038;-83
2021/01/29 06:33:29;;;;;;;111.25;48.55;;;;;;;5.00;100.00;98669.25;4962089;28;20053;-85
2021/01/29 06:36:16;;;;;;;125.53;52.70;;;;;;;4.99;100.00;98670.28;4980771;28;20520;-83
2021/01/29 06:38:44;;;;;;;116.93;51.45;;;;;;;5.01;100.00;98675.41;4984471;28;20066;-84
2021/01/29 06:41:41;;;;;;;111.40;49.67;;;;;;;5.07;100.00;98670.19;4992041;28;20406;-83
2021/01/29 06:44:22;;;;;;;121.80;54.08;;;;;;;5.13;100.00;98673.97;4988783;28;20136;-82
2021/01/29 06:47:06;;;;;;;119.80;55.13;;;;;;;5.16;100.00;98677.09;5015226;28;20108;-86
2021/01/29 06:50:06;;;;;;;129.82;54.15;;;;;;;5.14;100.00;98671.13;5007474;28;20050;-86
2021/01/29 06:53:15;;;;;;;137.30;61.00;;;;;;;5.18;100.00;98667.09;5007330;28;20420;-83
2021/01/29 06:55:59;;;;;;;167.15;61.45;;;;;;;5.16;100.00;98674.44;4995491;28;20050;-82
2021/01/29 06:58:49;;;;;;;129.52;55.30;;;;;;;5.18;100.00;98669.75;4988173;28;20039;-85
2021/01/29 07:01:21;;;;;;;133.75;62.90;;;;;;;5.28;100.00;98666.81;4984595;28;20050;-85
2021/01/29 07:04:25;;;;;;;138.90;62.97;;;;;;;5.51;100.00;98672.06;5000030;28;20386;-84
2021/01/29 07:07:14;;;;;;;135.45;53.55;;;;;;;5.74;100.00;98668.50;4997087;28;20057;-84
2021/01/29 07:09:46;;;;;;;161.88;66.13;;;;;;;5.81;100.00;98666.72;4998553;28;20101;-82
2021/01/29 07:12:25;;;;;;;132.70;55.08;;;;;;;5.97;100.00;98671.88;4994867;28;20046;-85
2021/01/29 07:15:01;;;;;;;114.82;43.95;;;;;;;6.16;100.00;98666.97;5034114;28;20045;-80
2021/01/29 07:17:55;;;;;;;110.35;44.80;;;;;;;6.21;100.00;98661.91;5022454;28;20030;-81
2021/01/29 07:20:36;;;;;;;105.93;38.17;;;;;;;6.31;100.00;98655.28;5018857;28;20055;-82
2021/01/29 07:23:31;;;;;;;103.30;43.38;;;;;;;6.36;100.00;98662.72;5030208;28;20049;-82
2021/01/29 07:26:02;;;;;;;94.97;37.65;;;;;;;6.39;100.00;98664.13;5023290;28;20050;-82
2021/01/29 07:28:46;;;;;;;93.03;34.65;;;;;;;6.45;100.00;98672.22;5015217;28;20038;-83
2021/01/29 07:31:55;;;;;;;84.60;32.90;;;;;;;6.52;100.00;98662.44;5004302;28;20048;-84
2021/01/29 07:34:34;;;;;;;79.85;35.28;;;;;;;6.54;100.00;98673.75;4977434;28;20080;-84
2021/01/29 07:37:18;;;;;;;72.00;33.70;;;;;;;6.58;100.00;98660.03;4994310;28;20077;-84
2021/01/29 07:40:05;;;;;;;69.00;30.27;;;;;;;6.62;100.00;98659.47;4983312;28;20042;-82
2021/01/29 07:42:36;;;;;;;64.30;26.50;;;;;;;6.68;100.00;98672.03;4959285;28;20118;-84
2021/01/29 07:45:29;;;;;;;54.80;24.70;;;;;;;6.77;100.00;98664.72;4973020;28;20046;-81
2021/01/29 07:48:12;;;;;;;52.03;25.02;;;;;;;6.78;100.00;98671.69;5003421;28;20060;-85
2021/01/29 07:50:52;;;;;;;52.67;23.65;;;;;;;6.83;100.00;98674.63;5009344;28;20042;-82
2021/01/29 07:53:30;;;;;;;47.13;20.13;;;;;;;6.85;100.00;98671.75;5013216;28;20050;-83
2021/01/29 07:56:14;;;;;;;51.60;21.27;;;;;;;6.87;100.00;98669.72;4997234;28;20049;-83
2021/01/29 07:58:58;;;;;;;46.35;20.33;;;;;;;6.87;100.00;98675.06;4981677;28;20050;-80
2021/01/29 08:01:35;;;;;;;42.97;19.15;;;;;;;6.90;100.00;98667.50;5000098;28;20126;-82
2021/01/29 08:04:11;;;;;;;46.25;18.55;;;;;;;6.91;100.00;98661.16;4999728;28;20053;-82
2021/01/29 08:06:42;;;;;;;45.75;23.77;;;;;;;6.90;100.00;98675.50;5003810;28;20061;-85
2021/01/29 08:09:11;;;;;;;42.15;16.98;;;;;;;6.98;100.00;98671.88;4996464;28;20536;-80
2021/01/29 08:11:40;;;;;;;36.63;18.50;;;;;;;6.94;100.00;98659.97;5005175;28;20492;-81
2021/01/29 08:14:43;;;;;;;35.50;19.95;;;;;;;6.98;100.00;98664.69;5000913;28;20117;-84
2021/01/29 08:17:27;;;;;;;36.80;20.00;;;;;;;6.94;100.00;98666.13;4964374;28;20051;-80
2021/01/29 08:19:58;;;;;;;38.08;20.52;;;;;;;6.94;100.00;98658.13;5024297;28;20497;-82
2021/01/29 08:23:05;;;;;;;30.63;16.92;;;;;;;6.98;100.00;98656.69;5010634;28;20677;-84
2021/01/29 08:25:54;;;;;;;33.50;15.82;;;;;;;7.01;100.00;98666.16;4978025;28;20053;-80
2021/01/29 08:28:44;;;;;;;35.67;18.42;;;;;;;7.01;100.00;98672.31;5000423;28;20056;-81
2021/01/29 08:31:27;;;;;;;34.25;18.58;;;;;;;6.98;100.00;98667.38;4994297;28;20061;-84
2021/01/29 08:34:17;;;;;;;37.10;18.02;;;;;;;7.03;100.00;98673.97;5001512;28;20060;-84
2021/01/29 08:37:07;;;;;;;31.83;15.73;;;;;;;7.04;100.00;98676.44;4991754;28;20092;-82
2021/01/29 08:39:52;;;;;;;31.48;18.13;;;;;;;7.05;100.00;98675.44;5008931;28;20100;-84
2021/01/29 08:42:46;;;;;;;27.20;16.83;;;;;;;7.07;100.00;98678.72;4987330;28;20516;-83
2021/01/29 08:45:14;;;;;;;32.95;16.63;;;;;;;7.10;100.00;98693.50;4994888;28;20056;-82
2021/01/29 08:47:54;;;;;;;29.92;19.42;;;;;;;7.09;100.00;98689.22;4992936;28;20038;-82
2021/01/29 08:50:19;;;;;;;38.00;22.88;;;;;;;7.11;100.00;98687.19;4977737;28;20054;-82
2021/01/29 08:53:08;;;;;;;30.83;17.10;;;;;;;7.14;100.00;98689.47;5001861;28;20460;-84
2021/01/29 08:56:02;;;;;;;24.13;14.52;;;;;;;7.13;100.00;98693.13;5010206;28;20451;-81
2021/01/29 08:58:49;;;;;;;29.77;16.63;;;;;;;7.11;100.00;98682.66;4945748;28;21058;-83
2021/01/29 09:01:24;;;;;;;27.17;13.18;;;;;;;7.12;100.00;98691.47;4990493;28;20081;-84
2021/01/29 09:04:00;;;;;;;24.52;16.20;;;;;;;7.12;100.00;98692.31;4995735;28;20039;-83
2021/01/29 09:06:29;;;;;;;24.73;14.27;;;;;;;7.11;100.00;98695.19;4988331;28;20052;-83
2021/01/29 09:09:04;;;;;;;23.27;14.45;;;;;;;7.12;100.00;98699.50;4979312;28;20038;-84
2021/01/29 09:11:48;;;;;;;22.35;14.23;;;;;;;7.14;100.00;98700.13;5005156;28;20148;-85
2021/01/29 09:14:42;;;;;;;26.77;16.33;;;;;;;7.14;100.00;98697.47;4996618;28;20065;-84
2021/01/29 09:17:12;;;;;;;20.58;11.18;;;;;;;7.13;100.00;98693.94;4981743;28;20050;-88
2021/01/29 09:19:42;;;;;;;20.30;11.85;;;;;;;7.15;100.00;98699.91;4960518;28;20406;-83
2021/01/29 09:22:31;;;;;;;17.50;10.27;;;;;;;7.19;100.00;98684.34;4980210;28;20528;-85
2021/01/29 09:25:06;;;;;;;17.60;11.75;;;;;;;7.21;100.00;98701.00;4982582;28;20052;-87
2021/01/29 09:27:36;;;;;;;17.17;9.50;;;;;;;7.25;100.00;98712.94;4997887;28;20545;-86
2021/01/29 09:30:12;;;;;;;19.05;10.00;;;;;;;7.28;100.00;98714.38;4978451;28;20034;-84
2021/01/29 09:33:00;;;;;;;14.50;8.20;;;;;;;7.29;100.00;98703.53;4976765;28;20453;-86
2021/01/29 09:35:38;;;;;;;14.32;10.57;;;;;;;7.32;100.00;98715.66;4973991;28;20145;-85
2021/01/29 09:38:10;;;;;;;18.00;10.70;;;;;;;7.33;100.00;98727.97;4988875;28;20039;-85
2021/01/29 09:40:46;;;;;;;16.30;9.52;;;;;;;7.37;100.00;98707.91;4979717;28;20660;-84
2021/01/29 09:43:23;;;;;;;17.60;11.95;;;;;;;7.38;100.00;98717.53;4987009;28;20046;-85
2021/01/29 09:45:55;;;;;;;17.15;9.02;;;;;;;7.40;100.00;98713.66;4987526;28;20038;-83
2021/01/29 09:48:24;;;;;;;15.85;8.82;;;;;;;7.44;100.00;98725.59;4990538;28;20053;-85
2021/01/29 09:51:00;;;;;;;;;;;;;;;7.47;100.00;98745.72;4984338;28;20045;-84
2021/01/29 09:53:30;;;;;;;17.35;9.75;;;;;;;7.42;100.00;98749.00;4989305;28;19984;-84
2021/01/29 09:56:02;;;;;;;15.18;9.77;;;;;;;7.45;100.00;98761.94;5008033;28;20034;-83
2021/01/29 09:59:18;;;;;;;23.95;11.32;;;;;;;7.47;100.00;98751.06;4999856;28;20077;-84
2021/01/29 10:02:00;;;;;;;19.77;11.55;;;;;;;7.50;100.00;98763.19;4965046;28;20038;-83
2021/01/29 10:04:51;;;;;;;15.38;10.05;;;;;;;7.53;100.00;98776.16;5002236;28;20035;-84
2021/01/29 10:07:22;;;;;;;12.20;7.45;;;;;;;7.56;100.00;98760.56;5003496;28;20037;-83
2021/01/29 10:10:02;;;;;;;17.02;9.13;;;;;;;7.57;100.00;98783.59;5007324;28;20046;-84
2021/01/29 10:12:33;;;;;;;13.93;6.70;;;;;;;7.59;100.00;98778.03;4995854;28;20053;-84
2021/01/29 10:15:20;;;;;;;15.35;8.30;;;;;;;7.60;100.00;98787.72;5001475;28;20042;-82
2021/01/29 10:18:15;;;;;;;13.43;7.03;;;;;;;7.61;100.00;98792.84;4999185;28;20038;-84
2021/01/29 10:20:42;;;;;;;13.02;6.93;;;;;;;7.60;100.00;98795.72;4989234;28;20038;-82
2021/01/29 10:23:23;;;;;;;19.63;8.02;;;;;;;7.60;100.00;98795.72;4985855;28;20039;-85
2021/01/29 10:26:16;;;;;;;13.65;6.07;;;;;;;7.60;100.00;98790.38;4982374;28;20038;-81
2021/01/29 10:28:50;;;;;;;15.45;6.85;;;;;;;7.58;100.00;98811.91;5010829;28;20049;-83
2021/01/29 10:31:19;;;;;;;12.13;5.93;;;;;;;7.57;100.00;98814.81;4989110;28;20047;-84
2021/01/29 10:33:48;;;;;;;18.13;7.75;;;;;;;7.55;100.00;98822.16;4985697;28;20050;-85
2021/01/29 10:36:22;;;;;;;15.63;8.30;;;;;;;7.53;100.00;98818.84;4988115;28;20086;-84
2021/01/29 10:38:59;;;;;;;18.20;7.18;;;;;;;7.52;100.00;98819.88;4992402;28;20042;-85
2021/01/29 10:41:47;;;;;;;15.57;6.60;;;;;;;7.50;100.00;98828.06;5020711;28;20077;-84
2021/01/29 10:44:14;;;;;;;16.77;6.32;;;;;;;7.47;100.00;98829.28;5000484;28;20049;-85
2021/01/29 10:47:14;;;;;;;15.70;8.23;;;;;;;7.44;100.00;98832.34;5005980;28;20080;-84
2021/01/29 10:49:57;;;;;;;18.77;7.15;;;;;;;7.42;100.00;98847.72;4995217;28;20042;-83
2021/01/29 10:52:41;;;;;;;16.13;6.57;;;;;;;7.37;100.00;98823.44;4986644;28;20055;-84
2021/01/29 10:55:28;;;;;;;15.98;6.53;;;;;;;7.37;100.00;98847.47;4978014;28;20414;-86
2021/01/29 10:57:56;;;;;;;15.63;5.97;;;;;;;7.35;100.00;98854.84;4983463;28;20042;-80
2021/01/29 11:00:25;;;;;;;22.52;8.07;;;;;;;7.32;100.00;98825.88;4980555;28;20049;-83
2021/01/29 11:03:21;;;;;;;26.63;9.77;;;;;;;7.31;100.00;98858.91;4969618;28;20078;-83
2021/01/29 11:05:48;;;;;;;26.58;9.65;;;;;;;7.29;100.00;98863.59;4978078;28;20114;-84
2021/01/29 11:08:23;;;;;;;25.20;9.50;;;;;;;7.27;100.00;98867.47;4981117;28;20046;-84
2021/01/29 11:10:57;;;;;;;40.83;10.57;;;;;;;7.26;100.00;98877.31;4979766;28;20038;-84
2021/01/29 11:13:48;;;;;;;31.38;9.75;;;;;;;7.26;100.00;98876.50;4979034;28;20050;-83
2021/01/29 11:16:18;;;;;;;43.45;12.35;;;;;;;7.24;100.00;98879.34;4981339;28;20513;-82
2021/01/29 11:18:45;;;;;;;39.35;10.13;;;;;;;7.23;100.00;98883.03;4984248;28;20390;-83
2021/01/29 11:21:21;;;;;;;37.88;11.32;;;;;;;7.26;100.00;98890.66;4963562;28;20478;-86
2021/01/29 11:24:05;;;;;;;41.28;10.75;;;;;;;7.29;100.00;98884.13;4985745;28;20733;-82
2021/01/29 11:26:39;;;;;;;29.90;8.98;;;;;;;7.30;100.00;98877.75;4964295;28;20382;-83
2021/01/29 11:29:30;;;;;;;44.10;10.75;;;;;;;7.33;100.00;98886.22;4995022;28;20096;-82
2021/01/29 11:32:17;;;;;;;41.35;9.45;;;;;;;7.36;100.00;98888.50;4985350;28;20124;-84
2021/01/29 11:34:43;;;;;;;29.70;8.77;;;;;;;7.41;100.00;98888.75;4978196;28;20034;-83
2021/01/29 11:37:30;;;;;;;35.30;9.77;;;;;;;7.45;100.00;98891.88;4962881;28;20049;-82
2021/01/29 11:40:29;;;;;;;40.80;8.32;;;;;;;7.49;100.00;98887.00;4974512;28;20093;-83
2021/01/29 11:43:10;;;;;;;39.05;10.75;;;;;;;7.52;100.00;98886.63;4975265;28;20071;-82
2021/01/29 11:45:47;;;;;;;36.58;8.80;;;;;;;7.54;100.00;98890.75;4962560;28;20121;-84
2021/01/29 11:48:21;;;;;;;38.00;9.65;;;;;;;7.59;100.00;98890.16;4985106;28;20474;-85
2021/01/29 11:50:56;;;;;;;24.80;8.27;;;;;;;7.62;100.00;98881.75;4982152;28;20089;-86
2021/01/29 11:53:35;;;;;;;31.42;7.88;;;;;;;7.67;100.00;98869.50;4975736;28;20057;-86
2021/01/29 11:56:22;;;;;;;29.30;7.07;;;;;;;7.71;100.00;98888.66;4986392;28;20057;-85
2021/01/29 11:58:51;;;;;;;36.72;8.10;;;;;;;7.72;100.00;98890.28;4997830;28;20058;-83
2021/01/29 12:01:38;;;;;;;36.00;8.80;;;;;;;7.78;100.00;98910.88;4992982;28;20043;-83
2021/01/29 12:04:50;;;;;;;33.88;8.05;;;;;;;7.80;100.00;98894.69;4977816;28;20042;-85
2021/01/29 12:07:24;;;;;;;27.67;6.85;;;;;;;7.81;100.00;98890.97;4895539;29;20139;-86